createdAt,value
2016-10-08T00:00:04.001Z,0
2016-10-08T00:01:16.953Z,0
2016-10-08T00:02:29.895Z,0
2016-10-08T00:03:43.392Z,0
2016-10-08T00:04:56.299Z,0
2016-10-08T00:06:08.723Z,0
2016-10-08T00:07:21.872Z,0
2016-10-08T00:08:34.867Z,0
2016-10-08T00:09:47.523Z,0
2016-10-08T00:11:00.451Z,0
2016-10-08T00:12:13.957Z,0
2016-10-08T00:13:26.923Z,0
2016-10-08T00:14:40.251Z,0
2016-10-08T00:15:53.239Z,0
2016-10-08T00:17:06.186Z,0
2016-10-08T00:18:19.699Z,0
2016-10-08T00:19:31.641Z,0
2016-10-08T00:20:45.026Z,0
2016-10-08T00:21:58.497Z,0
2016-10-08T00:23:11.474Z,0
2016-10-08T00:24:23.905Z,0
2016-10-08T00:25:37.591Z,0
2016-10-08T00:26:51.219Z,0
2016-10-08T00:28:04.773Z,0
2016-10-08T00:29:17.718Z,0
2016-10-08T00:30:30.681Z,0
2016-10-08T00:31:43.668Z,0
2016-10-08T00:32:56.041Z,0
2016-10-08T00:34:09.556Z,0
2016-10-08T00:35:22.069Z,0
2016-10-08T00:36:34.293Z,0
2016-10-08T00:37:47.282Z,0
2016-10-08T00:38:59.676Z,0
2016-10-08T00:40:13.132Z,0
2016-10-08T00:41:26.685Z,0
2016-10-08T00:42:39.747Z,0
2016-10-08T00:43:53.133Z,0
2016-10-08T00:45:06.168Z,0
2016-10-08T00:46:18.565Z,0
2016-10-08T00:47:31.450Z,0
2016-10-08T00:48:44.435Z,0
2016-10-08T00:49:56.815Z,0
2016-10-08T00:51:10.255Z,0
2016-10-08T00:52:23.728Z,0
2016-10-08T00:53:37.385Z,0
2016-10-08T00:54:50.370Z,0
2016-10-08T00:56:03.297Z,0
2016-10-08T00:57:16.224Z,0
2016-10-08T00:58:28.870Z,0
2016-10-08T00:59:42.312Z,0
2016-10-08T01:00:54.778Z,0
2016-10-08T01:02:07.686Z,0
2016-10-08T01:03:20.635Z,0
2016-10-08T01:04:33.748Z,0
2016-10-08T01:05:47.245Z,0
2016-10-08T01:07:00.166Z,0
2016-10-08T01:08:13.205Z,0
2016-10-08T01:09:25.894Z,0
2016-10-08T01:10:38.683Z,0
2016-10-08T01:11:52.126Z,0
2016-10-08T01:13:05.614Z,0
2016-10-08T01:14:18.621Z,0
2016-10-08T01:15:31.663Z,0
2016-10-08T01:16:45.088Z,0
2016-10-08T01:17:58.510Z,0
2016-10-08T01:19:11.489Z,0
2016-10-08T01:20:25.010Z,0
2016-10-08T01:21:37.954Z,0
2016-10-08T01:22:50.930Z,0
2016-10-08T01:24:03.961Z,0
2016-10-08T01:25:17.151Z,0
2016-10-08T01:26:30.765Z,0
2016-10-08T01:27:44.208Z,0
2016-10-08T01:28:57.742Z,0
2016-10-08T01:30:11.320Z,0
2016-10-08T01:31:23.525Z,0
2016-10-08T01:32:37.091Z,0
2016-10-08T01:33:50.631Z,0
2016-10-08T01:35:03.642Z,0
2016-10-08T01:36:16.658Z,0
2016-10-08T01:37:29.776Z,0
2016-10-08T01:38:43.224Z,0
2016-10-08T01:39:56.655Z,0
2016-10-08T01:41:09.590Z,0
2016-10-08T01:42:23.189Z,0
2016-10-08T01:43:36.150Z,0
2016-10-08T01:44:49.649Z,0
2016-10-08T01:46:02.594Z,0
2016-10-08T01:47:16.060Z,0
2016-10-08T01:48:29.230Z,0
2016-10-08T01:49:42.217Z,0
2016-10-08T01:50:54.656Z,0
2016-10-08T01:52:08.126Z,0
2016-10-08T01:53:21.056Z,0
2016-10-08T01:54:34.486Z,0
2016-10-08T01:55:47.492Z,0
2016-10-08T01:56:59.944Z,0
2016-10-08T01:58:12.891Z,0
2016-10-08T01:59:26.118Z,0
2016-10-08T02:00:39.578Z,0
2016-10-08T02:01:52.020Z,0
2016-10-08T02:03:04.977Z,0
2016-10-08T02:04:18.595Z,0
2016-10-08T02:05:31.018Z,0
2016-10-08T02:06:44.094Z,0
2016-10-08T02:07:56.525Z,0
2016-10-08T02:09:08.978Z,0
2016-10-08T02:10:22.264Z,0
2016-10-08T02:11:35.328Z,0
2016-10-08T02:12:48.747Z,0
2016-10-08T02:14:01.657Z,0
2016-10-08T02:15:15.089Z,0
2016-10-08T02:16:28.046Z,0
2016-10-08T02:17:41.581Z,0
2016-10-08T02:18:54.000Z,0
2016-10-08T02:20:06.401Z,0
2016-10-08T02:21:20.147Z,0
2016-10-08T02:22:33.763Z,0
2016-10-08T02:23:47.201Z,0
2016-10-08T02:25:00.661Z,0
2016-10-08T02:26:14.334Z,0
2016-10-08T02:27:27.787Z,0
2016-10-08T02:28:40.720Z,0
2016-10-08T02:29:53.171Z,0
2016-10-08T02:31:06.592Z,0
2016-10-08T02:32:19.235Z,0
2016-10-08T02:33:32.694Z,0
2016-10-08T02:34:45.659Z,0
2016-10-08T02:35:58.644Z,0
2016-10-08T02:37:11.814Z,0
2016-10-08T02:38:24.730Z,0
2016-10-08T02:39:38.321Z,0
2016-10-08T02:40:51.266Z,0
2016-10-08T02:42:04.714Z,0
2016-10-08T02:43:17.996Z,0
2016-10-08T02:44:31.014Z,0
2016-10-08T02:45:43.476Z,0
2016-10-08T02:46:55.985Z,0
2016-10-08T02:48:08.892Z,0
2016-10-08T02:49:21.907Z,0
2016-10-08T02:50:35.456Z,0
2016-10-08T02:51:47.413Z,0
2016-10-08T02:53:01.090Z,0
2016-10-08T02:54:14.422Z,0
2016-10-08T02:55:27.388Z,0
2016-10-08T02:56:39.294Z,0
2016-10-08T02:57:52.180Z,0
2016-10-08T02:59:05.723Z,0
2016-10-08T03:00:23.457Z,0
2016-10-08T03:01:42.726Z,0
2016-10-08T03:03:02.140Z,0
2016-10-08T03:04:20.279Z,0
2016-10-08T03:05:32.941Z,0
2016-10-08T03:06:45.907Z,0
2016-10-08T03:07:58.367Z,0
2016-10-08T03:09:11.507Z,0
2016-10-08T03:10:24.946Z,0
2016-10-08T03:11:37.897Z,0
2016-10-08T03:12:50.922Z,0
2016-10-08T03:14:04.460Z,0
2016-10-08T03:15:17.510Z,0
2016-10-08T03:16:29.422Z,0
2016-10-08T03:17:42.385Z,0
2016-10-08T03:18:55.340Z,0
2016-10-08T03:20:07.876Z,0
2016-10-08T03:21:20.333Z,0
2016-10-08T03:22:33.255Z,0
2016-10-08T03:23:46.199Z,0
2016-10-08T03:24:59.209Z,0
2016-10-08T03:26:12.333Z,0
2016-10-08T03:27:25.290Z,0
2016-10-08T03:28:38.243Z,0
2016-10-08T03:29:51.201Z,0
2016-10-08T03:31:04.353Z,0
2016-10-08T03:32:17.812Z,0
2016-10-08T03:33:30.770Z,0
2016-10-08T03:34:44.307Z,0
2016-10-08T03:35:57.441Z,0
2016-10-08T03:37:10.449Z,0
2016-10-08T03:38:23.937Z,0
2016-10-08T03:39:36.830Z,0
2016-10-08T03:40:50.299Z,0
2016-10-08T03:42:03.479Z,0
2016-10-08T03:43:15.377Z,0
2016-10-08T03:44:28.333Z,0
2016-10-08T03:45:40.792Z,0
2016-10-08T03:46:54.386Z,0
2016-10-08T03:48:07.891Z,0
2016-10-08T03:49:20.334Z,0
2016-10-08T03:50:33.332Z,0
2016-10-08T03:51:46.812Z,0
2016-10-08T03:52:59.895Z,0
2016-10-08T03:54:12.875Z,0
2016-10-08T03:55:26.318Z,0
2016-10-08T03:56:39.277Z,0
2016-10-08T03:57:51.867Z,0
2016-10-08T03:59:04.805Z,0
2016-10-08T04:00:16.689Z,0
2016-10-08T04:01:29.643Z,0
2016-10-08T04:02:42.085Z,0
2016-10-08T04:03:54.745Z,0
2016-10-08T04:05:08.204Z,0
2016-10-08T04:06:21.709Z,0
2016-10-08T04:07:34.170Z,0
2016-10-08T04:08:47.258Z,0
2016-10-08T04:10:00.805Z,0
2016-10-08T04:11:13.908Z,0
2016-10-08T04:12:26.912Z,0
2016-10-08T04:13:39.369Z,0
2016-10-08T04:14:51.977Z,0
2016-10-08T04:16:04.984Z,0
2016-10-08T04:17:17.921Z,0
2016-10-08T04:18:31.379Z,0
2016-10-08T04:19:44.467Z,0
2016-10-08T04:20:57.410Z,0
2016-10-08T04:22:10.373Z,0
2016-10-08T04:23:23.280Z,0
2016-10-08T04:24:36.275Z,0
2016-10-08T04:25:49.421Z,0
2016-10-08T04:27:01.883Z,0
2016-10-08T04:28:14.291Z,0
2016-10-08T04:29:27.294Z,0
2016-10-08T04:30:42.238Z,0
2016-10-08T04:31:55.780Z,0
2016-10-08T04:33:08.251Z,0
2016-10-08T04:34:21.708Z,0
2016-10-08T04:35:35.223Z,0
2016-10-08T04:36:48.248Z,0
2016-10-08T04:38:01.651Z,0
2016-10-08T04:39:14.561Z,0
2016-10-08T04:40:27.652Z,0
2016-10-08T04:41:41.286Z,0
2016-10-08T04:42:54.319Z,0
2016-10-08T04:44:07.860Z,0
2016-10-08T04:45:20.782Z,0
2016-10-08T04:46:33.205Z,0
2016-10-08T04:47:45.758Z,0
2016-10-08T04:48:59.314Z,0
2016-10-08T04:50:13.203Z,0
2016-10-08T04:51:25.714Z,0
2016-10-08T04:52:38.620Z,0
2016-10-08T04:53:51.768Z,0
2016-10-08T04:55:05.328Z,0
2016-10-08T04:56:18.335Z,0
2016-10-08T04:57:31.316Z,0
2016-10-08T04:58:44.086Z,0
2016-10-08T04:59:56.577Z,0
2016-10-08T05:01:08.573Z,0
2016-10-08T05:02:20.606Z,0
2016-10-08T05:03:33.141Z,0
2016-10-08T05:04:46.634Z,0
2016-10-08T05:05:59.722Z,0
2016-10-08T05:07:12.107Z,0
2016-10-08T05:08:25.639Z,0
2016-10-08T05:09:38.839Z,0
2016-10-08T05:10:51.773Z,0
2016-10-08T05:12:03.648Z,0
2016-10-08T05:13:16.081Z,0
2016-10-08T05:14:29.045Z,0
2016-10-08T05:15:42.014Z,0
2016-10-08T05:16:55.129Z,0
2016-10-08T05:18:07.580Z,0
2016-10-08T05:19:21.130Z,0
2016-10-08T05:20:34.442Z,0
2016-10-08T05:21:46.952Z,0
2016-10-08T05:23:00.022Z,0
2016-10-08T05:24:13.001Z,0
2016-10-08T05:25:26.684Z,0
2016-10-08T05:26:39.638Z,0
2016-10-08T05:27:52.149Z,0
2016-10-08T05:29:04.723Z,0
2016-10-08T05:30:18.266Z,0
2016-10-08T05:31:31.581Z,0
2016-10-08T05:32:45.054Z,0
2016-10-08T05:33:58.055Z,0
2016-10-08T05:35:11.917Z,0
2016-10-08T05:36:24.337Z,0
2016-10-08T05:37:36.272Z,0
2016-10-08T05:38:49.783Z,0
2016-10-08T05:40:02.204Z,0
2016-10-08T05:41:14.800Z,0
2016-10-08T05:42:28.424Z,0
2016-10-08T05:43:41.360Z,0
2016-10-08T05:44:54.979Z,0
2016-10-08T05:46:07.900Z,0
2016-10-08T05:47:21.073Z,0
2016-10-08T05:48:34.140Z,0
2016-10-08T05:49:47.192Z,0
2016-10-08T05:50:59.587Z,0
2016-10-08T05:52:12.041Z,0
2016-10-08T05:53:24.700Z,0
2016-10-08T05:54:37.824Z,0
2016-10-08T05:55:51.358Z,0
2016-10-08T05:57:04.281Z,0
2016-10-08T05:58:18.027Z,0
2016-10-08T05:59:31.521Z,0
2016-10-08T06:00:44.564Z,0
2016-10-08T06:01:58.039Z,0
2016-10-08T06:03:11.042Z,0
2016-10-08T06:04:23.047Z,0
2016-10-08T06:05:36.276Z,0
2016-10-08T06:06:49.246Z,0
2016-10-08T06:08:01.902Z,0
2016-10-08T06:09:15.597Z,0
2016-10-08T06:10:28.571Z,0
2016-10-08T06:11:42.005Z,0
2016-10-08T06:12:55.038Z,0
2016-10-08T06:14:08.493Z,0
2016-10-08T06:15:21.721Z,0
2016-10-08T06:16:34.574Z,0
2016-10-08T06:17:47.564Z,0
2016-10-08T06:19:00.023Z,0
2016-10-08T06:20:12.890Z,0
2016-10-08T06:21:24.818Z,0
2016-10-08T06:22:37.831Z,0
2016-10-08T06:23:50.912Z,0
2016-10-08T06:25:03.793Z,0
2016-10-08T06:26:16.917Z,0
2016-10-08T06:27:29.891Z,0
2016-10-08T06:28:43.526Z,0
2016-10-08T06:29:56.477Z,0
2016-10-08T06:31:09.247Z,0
2016-10-08T06:32:22.346Z,0
2016-10-08T06:33:35.840Z,0
2016-10-08T06:34:49.301Z,0
2016-10-08T06:36:03.137Z,0
2016-10-08T06:37:16.172Z,0
2016-10-08T06:38:28.547Z,0
2016-10-08T06:39:46.514Z,0
2016-10-08T06:41:02.340Z,0
2016-10-08T06:42:15.806Z,0
2016-10-08T06:43:28.804Z,0
2016-10-08T06:44:40.708Z,0
2016-10-08T06:45:54.152Z,0
2016-10-08T06:47:06.571Z,0
2016-10-08T06:48:20.082Z,0
2016-10-08T06:49:33.507Z,0
2016-10-08T06:50:45.952Z,0
2016-10-08T06:52:03.503Z,0
2016-10-08T06:53:18.739Z,0
2016-10-08T06:54:34.767Z,0
2016-10-08T06:55:51.194Z,0
2016-10-08T06:57:07.423Z,0
2016-10-08T06:58:24.332Z,0
2016-10-08T06:59:37.951Z,0
2016-10-08T07:00:56.243Z,0
2016-10-08T07:02:09.905Z,0
2016-10-08T07:03:25.032Z,0
2016-10-08T07:04:42.480Z,0
2016-10-08T07:05:56.206Z,0
2016-10-08T07:07:08.624Z,0
2016-10-08T07:08:21.638Z,0
2016-10-08T07:09:35.215Z,0
2016-10-08T07:10:48.205Z,0
2016-10-08T07:12:00.676Z,0
2016-10-08T07:13:13.700Z,0
2016-10-08T07:14:26.632Z,0
2016-10-08T07:15:40.115Z,0
2016-10-08T07:16:53.511Z,0
2016-10-08T07:18:07.360Z,0
2016-10-08T07:19:19.840Z,0
2016-10-08T07:20:32.772Z,0
2016-10-08T07:21:45.266Z,0
2016-10-08T07:22:58.870Z,0
2016-10-08T07:24:11.350Z,0
2016-10-08T07:25:24.230Z,0
2016-10-08T07:26:37.244Z,0
2016-10-08T07:27:50.672Z,0
2016-10-08T07:29:04.380Z,0
2016-10-08T07:30:17.982Z,0
2016-10-08T07:31:30.981Z,0
2016-10-08T07:32:44.545Z,0
2016-10-08T07:33:58.029Z,0
2016-10-08T07:35:11.870Z,0
2016-10-08T07:36:25.319Z,0
2016-10-08T07:37:39.010Z,0
2016-10-08T07:38:51.995Z,0
2016-10-08T07:40:04.405Z,0
2016-10-08T07:41:17.070Z,0
2016-10-08T07:42:30.292Z,0
2016-10-08T07:43:43.770Z,0
2016-10-08T07:44:57.370Z,0
2016-10-08T07:46:09.573Z,0
2016-10-08T07:47:22.570Z,0
2016-10-08T07:48:35.578Z,0
2016-10-08T07:49:48.122Z,0
2016-10-08T07:51:01.547Z,0
2016-10-08T07:52:15.555Z,0
2016-10-08T07:53:28.525Z,0
2016-10-08T07:54:42.047Z,0
2016-10-08T07:55:55.915Z,0
2016-10-08T07:57:10.597Z,0
2016-10-08T07:58:24.052Z,0
2016-10-08T07:59:37.553Z,0
2016-10-08T08:00:50.000Z,0
2016-10-08T08:02:02.451Z,0
2016-10-08T08:03:15.123Z,0
2016-10-08T08:04:28.089Z,0
2016-10-08T08:05:40.022Z,0
2016-10-08T08:06:53.032Z,0
2016-10-08T08:08:05.497Z,0
2016-10-08T08:09:19.117Z,0
2016-10-08T08:10:32.689Z,0
2016-10-08T08:11:45.748Z,0
2016-10-08T08:12:59.187Z,0
2016-10-08T08:14:12.789Z,0
2016-10-08T08:15:25.783Z,0
2016-10-08T08:16:39.243Z,0
2016-10-08T08:17:51.197Z,0
2016-10-08T08:19:03.906Z,0
2016-10-08T08:20:16.956Z,0
2016-10-08T08:21:30.492Z,0
2016-10-08T08:22:43.943Z,0
2016-10-08T08:23:56.387Z,0
2016-10-08T08:25:09.426Z,0
2016-10-08T08:26:22.889Z,0
2016-10-08T08:27:36.421Z,0
2016-10-08T08:28:49.827Z,0
2016-10-08T08:30:02.847Z,0
2016-10-08T08:31:15.279Z,0
2016-10-08T08:32:28.755Z,0
2016-10-08T08:33:42.286Z,0
2016-10-08T08:34:55.729Z,0
2016-10-08T08:36:08.978Z,0
2016-10-08T08:37:21.992Z,0
2016-10-08T08:38:34.432Z,0
2016-10-08T08:39:47.408Z,0
2016-10-08T08:41:01.113Z,0
2016-10-08T08:42:13.091Z,0
2016-10-08T08:43:25.591Z,5
2016-10-08T08:44:37.507Z,5
2016-10-08T08:45:50.948Z,5
2016-10-08T08:47:04.498Z,5
2016-10-08T08:48:17.465Z,5
2016-10-08T08:49:30.462Z,5
2016-10-08T08:50:43.958Z,10
2016-10-08T08:51:57.107Z,10
2016-10-08T08:53:10.093Z,10
2016-10-08T08:54:23.035Z,10
2016-10-08T08:55:36.514Z,10
2016-10-08T08:56:48.877Z,10
2016-10-08T08:58:01.978Z,15
2016-10-08T08:59:14.408Z,15
2016-10-08T09:00:27.400Z,15
2016-10-08T09:01:40.343Z,15
2016-10-08T09:02:52.744Z,15
2016-10-08T09:04:05.724Z,15
2016-10-08T09:05:18.170Z,20
2016-10-08T09:06:31.136Z,20
2016-10-08T09:07:43.537Z,20
2016-10-08T09:08:56.948Z,20
2016-10-08T09:10:09.427Z,20
2016-10-08T09:11:22.451Z,20
2016-10-08T09:12:35.451Z,25
2016-10-08T09:13:48.509Z,25
2016-10-08T09:15:02.005Z,25
2016-10-08T09:16:15.493Z,25
2016-10-08T09:17:27.980Z,25
2016-10-08T09:18:40.399Z,25
2016-10-08T09:19:53.157Z,25
2016-10-08T09:21:06.567Z,30
2016-10-08T09:22:19.569Z,30
2016-10-08T09:23:32.637Z,30
2016-10-08T09:24:45.193Z,30
2016-10-08T09:25:58.169Z,30
2016-10-08T09:27:11.185Z,30
2016-10-08T09:28:24.114Z,30
2016-10-08T09:29:37.599Z,30
2016-10-08T09:30:51.366Z,30
2016-10-08T09:32:03.774Z,35
2016-10-08T09:33:16.702Z,35
2016-10-08T09:34:29.697Z,35
2016-10-08T09:35:43.200Z,35
2016-10-08T09:36:55.144Z,35
2016-10-08T09:38:08.081Z,35
2016-10-08T09:39:20.030Z,35
2016-10-08T09:40:33.174Z,35
2016-10-08T09:41:44.903Z,35
2016-10-08T09:42:57.362Z,35
2016-10-08T09:44:10.359Z,35
2016-10-08T09:45:23.306Z,35
2016-10-08T09:46:36.920Z,40
2016-10-08T09:47:49.891Z,40
2016-10-08T09:49:02.861Z,40
2016-10-08T09:50:15.828Z,40
2016-10-08T09:51:29.286Z,40
2016-10-08T09:52:42.856Z,40
2016-10-08T09:53:55.309Z,40
2016-10-08T09:55:07.777Z,40
2016-10-08T09:56:20.727Z,40
2016-10-08T09:57:33.665Z,40
2016-10-08T09:58:46.039Z,40
2016-10-08T09:59:58.999Z,40
2016-10-08T10:01:12.008Z,40
2016-10-08T10:02:25.014Z,40
2016-10-08T10:03:38.646Z,45
2016-10-08T10:04:50.995Z,45
2016-10-08T10:06:03.911Z,45
2016-10-08T10:07:15.337Z,45
2016-10-08T10:08:28.582Z,45
2016-10-08T10:09:40.514Z,45
2016-10-08T10:10:52.989Z,45
2016-10-08T10:12:05.973Z,45
2016-10-08T10:13:19.448Z,45
2016-10-08T10:14:33.013Z,45
2016-10-08T10:15:45.359Z,45
2016-10-08T10:16:57.357Z,45
2016-10-08T10:18:09.760Z,45
2016-10-08T10:19:23.284Z,45
2016-10-08T10:20:36.769Z,45
2016-10-08T10:21:50.334Z,45
2016-10-08T10:23:03.755Z,45
2016-10-08T10:24:16.159Z,45
2016-10-08T10:25:29.820Z,45
2016-10-08T10:26:41.712Z,50
2016-10-08T10:27:53.584Z,50
2016-10-08T10:29:06.512Z,50
2016-10-08T10:30:18.946Z,50
2016-10-08T10:31:31.897Z,50
2016-10-08T10:32:44.394Z,50
2016-10-08T10:33:56.873Z,50
2016-10-08T10:35:09.845Z,50
2016-10-08T10:36:22.917Z,50
2016-10-08T10:37:36.464Z,50
2016-10-08T10:38:48.962Z,50
2016-10-08T10:40:01.431Z,50
2016-10-08T10:41:14.362Z,50
2016-10-08T10:42:27.811Z,50
2016-10-08T10:43:40.819Z,50
2016-10-08T10:44:52.733Z,50
2016-10-08T10:46:05.677Z,50
2016-10-08T10:47:18.790Z,50
2016-10-08T10:48:31.222Z,50
2016-10-08T10:49:44.116Z,50
2016-10-08T10:50:55.984Z,50
2016-10-08T10:52:09.547Z,50
2016-10-08T10:53:23.140Z,50
2016-10-08T10:54:35.557Z,55
2016-10-08T10:55:48.523Z,55
2016-10-08T10:57:00.964Z,55
2016-10-08T10:58:13.706Z,55
2016-10-08T10:59:27.182Z,55
2016-10-08T11:00:39.705Z,55
2016-10-08T11:01:52.187Z,55
2016-10-08T11:03:05.191Z,55
2016-10-08T11:04:17.594Z,55
2016-10-08T11:05:31.137Z,55
2016-10-08T11:06:44.065Z,60
2016-10-08T11:07:56.993Z,60
2016-10-08T11:09:10.727Z,60
2016-10-08T11:10:24.264Z,60
2016-10-08T11:11:37.767Z,65
2016-10-08T11:12:51.252Z,65
2016-10-08T11:14:04.274Z,65
2016-10-08T11:15:17.748Z,65
2016-10-08T11:16:30.668Z,65
2016-10-08T11:17:44.178Z,65
2016-10-08T11:18:57.688Z,65
2016-10-08T11:20:10.602Z,70
2016-10-08T11:21:23.589Z,70
2016-10-08T11:22:37.144Z,70
2016-10-08T11:23:49.722Z,70
2016-10-08T11:25:01.728Z,75
2016-10-08T11:26:14.094Z,75
2016-10-08T11:27:27.055Z,75
2016-10-08T11:28:40.616Z,75
2016-10-08T11:29:54.149Z,75
2016-10-08T11:31:07.145Z,75
2016-10-08T11:32:20.150Z,75
2016-10-08T11:33:33.595Z,75
2016-10-08T11:34:46.601Z,80
2016-10-08T11:36:00.038Z,80
2016-10-08T11:37:13.652Z,80
2016-10-08T11:38:26.693Z,80
2016-10-08T11:39:39.690Z,80
2016-10-08T11:40:52.641Z,80
2016-10-08T11:42:05.583Z,80
2016-10-08T11:43:18.072Z,85
2016-10-08T11:44:31.288Z,85
2016-10-08T11:45:44.805Z,85
2016-10-08T11:46:57.972Z,85
2016-10-08T11:48:10.467Z,85
2016-10-08T11:49:23.432Z,85
2016-10-08T11:50:35.400Z,85
2016-10-08T11:51:48.905Z,85
2016-10-08T11:53:02.648Z,85
2016-10-08T11:54:15.061Z,90
2016-10-08T11:55:28.748Z,90
2016-10-08T11:56:42.237Z,90
2016-10-08T11:57:55.515Z,90
2016-10-08T11:59:08.996Z,90
2016-10-08T12:00:22.188Z,95
2016-10-08T12:01:35.666Z,95
2016-10-08T12:02:49.244Z,95
2016-10-08T12:04:01.108Z,95
2016-10-08T12:05:14.729Z,95
2016-10-08T12:06:28.247Z,95
2016-10-08T12:07:41.716Z,95
2016-10-08T12:08:54.897Z,95
2016-10-08T12:10:07.981Z,95
2016-10-08T12:11:21.469Z,100
2016-10-08T12:12:35.060Z,100
2016-10-08T12:13:48.692Z,100
2016-10-08T12:15:01.598Z,105
2016-10-08T12:16:14.013Z,105
2016-10-08T12:17:26.987Z,105
2016-10-08T12:18:39.969Z,110
2016-10-08T12:19:53.043Z,110
2016-10-08T12:21:05.494Z,110
2016-10-08T12:22:18.420Z,115
2016-10-08T12:23:31.414Z,115
2016-10-08T12:24:44.521Z,120
2016-10-08T12:25:57.529Z,120
2016-10-08T12:27:11.119Z,120
2016-10-08T12:28:24.317Z,125
2016-10-08T12:29:37.218Z,125
2016-10-08T12:30:50.373Z,130
2016-10-08T12:32:03.295Z,130
2016-10-08T12:33:16.285Z,130
2016-10-08T12:34:29.792Z,135
2016-10-08T12:35:42.944Z,140
2016-10-08T12:36:55.417Z,140
2016-10-08T12:38:08.325Z,140
2016-10-08T12:39:20.455Z,140
2016-10-08T12:40:33.438Z,145
2016-10-08T12:41:46.559Z,145
2016-10-08T12:42:59.501Z,145
2016-10-08T12:44:13.077Z,150
2016-10-08T12:45:24.971Z,150
2016-10-08T12:46:38.010Z,155
2016-10-08T12:47:51.595Z,160
2016-10-08T12:49:04.125Z,160
2016-10-08T12:50:17.650Z,165
2016-10-08T12:51:30.629Z,165
2016-10-08T12:52:43.745Z,170
2016-10-08T12:53:56.720Z,170
2016-10-08T12:55:10.231Z,175
2016-10-08T12:56:23.788Z,180
2016-10-08T12:57:36.409Z,180
2016-10-08T12:58:48.940Z,185
2016-10-08T13:00:02.375Z,190
2016-10-08T13:01:13.826Z,190
2016-10-08T13:02:26.790Z,190
2016-10-08T13:03:39.939Z,195
2016-10-08T13:04:53.426Z,195
2016-10-08T13:06:05.361Z,200
2016-10-08T13:07:18.243Z,205
2016-10-08T13:08:30.667Z,210
2016-10-08T13:09:43.659Z,215
2016-10-08T13:10:57.252Z,215
2016-10-08T13:12:10.313Z,225
2016-10-08T13:13:23.755Z,225
2016-10-08T13:14:36.874Z,230
2016-10-08T13:15:50.466Z,230
2016-10-08T13:17:03.079Z,230
2016-10-08T13:18:15.797Z,230
2016-10-08T13:19:28.266Z,230
2016-10-08T13:20:40.694Z,230
2016-10-08T13:21:53.100Z,230
2016-10-08T13:23:05.528Z,230
2016-10-08T13:24:18.548Z,235
2016-10-08T13:25:31.161Z,235
2016-10-08T13:26:44.109Z,235
2016-10-08T13:27:57.635Z,235
2016-10-08T13:29:10.092Z,235
2016-10-08T13:30:23.069Z,240
2016-10-08T13:31:36.031Z,240
2016-10-08T13:32:49.495Z,240
2016-10-08T13:34:02.428Z,240
2016-10-08T13:35:15.441Z,240
2016-10-08T13:36:28.014Z,240
2016-10-08T13:37:40.475Z,240
2016-10-08T13:38:52.917Z,250
2016-10-08T13:40:06.437Z,250
2016-10-08T13:41:18.895Z,245
2016-10-08T13:42:31.816Z,250
2016-10-08T13:43:45.293Z,250
2016-10-08T13:44:58.284Z,250
2016-10-08T13:46:11.318Z,260
2016-10-08T13:47:24.937Z,255
2016-10-08T13:48:38.390Z,255
2016-10-08T13:49:51.372Z,255
2016-10-08T13:51:04.939Z,260
2016-10-08T13:52:18.726Z,255
2016-10-08T13:53:31.182Z,260
2016-10-08T13:54:44.156Z,255
2016-10-08T13:55:57.626Z,250
2016-10-08T13:57:10.625Z,250
2016-10-08T13:58:23.388Z,255
2016-10-08T13:59:35.872Z,250
2016-10-08T14:00:48.802Z,260
2016-10-08T14:02:01.726Z,265
2016-10-08T14:03:15.204Z,270
2016-10-08T14:04:28.161Z,285
2016-10-08T14:05:40.619Z,300
2016-10-08T14:06:53.543Z,320
2016-10-08T14:08:06.454Z,375
2016-10-08T14:09:19.081Z,465
2016-10-08T14:10:31.041Z,520
2016-10-08T14:11:43.508Z,555
2016-10-08T14:12:56.540Z,585
2016-10-08T14:14:10.110Z,620
2016-10-08T14:15:23.072Z,685
2016-10-08T14:16:36.044Z,655
2016-10-08T14:17:49.579Z,615
2016-10-08T14:19:02.540Z,610
2016-10-08T14:20:15.671Z,620
2016-10-08T14:21:29.219Z,630
2016-10-08T14:22:41.584Z,640
2016-10-08T14:23:55.042Z,715
2016-10-08T14:25:08.832Z,750
2016-10-08T14:26:21.294Z,705
2016-10-08T14:27:34.304Z,710
2016-10-08T14:28:46.732Z,385
2016-10-08T14:30:00.271Z,670
2016-10-08T14:31:13.311Z,655
2016-10-08T14:32:25.729Z,660
2016-10-08T14:33:38.127Z,665
2016-10-08T14:34:51.618Z,665
2016-10-08T14:36:04.621Z,665
2016-10-08T14:37:17.637Z,665
2016-10-08T14:38:30.643Z,675
2016-10-08T14:39:42.583Z,690
2016-10-08T14:40:55.003Z,695
2016-10-08T14:42:07.516Z,695
2016-10-08T14:43:21.019Z,705
2016-10-08T14:44:33.451Z,715
2016-10-08T14:45:46.493Z,730
2016-10-08T14:47:00.252Z,720
2016-10-08T14:48:13.696Z,730
2016-10-08T14:49:27.258Z,730
2016-10-08T14:50:40.796Z,745
2016-10-08T14:51:53.828Z,745
2016-10-08T14:53:05.404Z,760
2016-10-08T14:54:18.353Z,770
2016-10-08T14:55:31.344Z,750
2016-10-08T14:56:44.800Z,760
2016-10-08T14:57:57.488Z,770
2016-10-08T14:59:10.485Z,765
2016-10-08T15:00:23.517Z,760
2016-10-08T15:01:36.942Z,755
2016-10-08T15:02:50.440Z,765
2016-10-08T15:04:03.096Z,760
2016-10-08T15:05:16.095Z,755
2016-10-08T15:06:29.120Z,760
2016-10-08T15:07:41.625Z,760
2016-10-08T15:08:54.092Z,765
2016-10-08T15:10:07.068Z,770
2016-10-08T15:11:20.182Z,770
2016-10-08T15:12:32.600Z,755
2016-10-08T15:13:46.086Z,745
2016-10-08T15:14:58.680Z,750
2016-10-08T15:16:11.630Z,750
2016-10-08T15:17:24.623Z,290
2016-10-08T15:18:37.646Z,795
2016-10-08T15:19:50.593Z,755
2016-10-08T15:21:03.149Z,755
2016-10-08T15:22:16.150Z,765
2016-10-08T15:23:29.059Z,765
2016-10-08T15:24:41.999Z,760
2016-10-08T15:25:54.798Z,765
2016-10-08T15:27:08.287Z,770
2016-10-08T15:28:21.227Z,770
2016-10-08T15:29:33.834Z,765
2016-10-08T15:30:46.272Z,765
2016-10-08T15:31:59.778Z,770
2016-10-08T15:33:12.719Z,765
2016-10-08T15:34:26.260Z,765
2016-10-08T15:35:39.771Z,755
2016-10-08T15:36:52.330Z,755
2016-10-08T15:38:04.744Z,755
2016-10-08T15:39:18.296Z,760
2016-10-08T15:40:30.794Z,765
2016-10-08T15:41:44.246Z,735
2016-10-08T15:42:57.271Z,670
2016-10-08T15:44:10.797Z,665
2016-10-08T15:45:22.701Z,655
2016-10-08T15:46:36.240Z,655
2016-10-08T15:47:49.415Z,655
2016-10-08T15:49:02.401Z,635
2016-10-08T15:50:14.899Z,625
2016-10-08T15:51:27.894Z,620
2016-10-08T15:52:40.832Z,625
2016-10-08T15:53:53.303Z,615
2016-10-08T15:55:06.837Z,615
2016-10-08T15:56:19.878Z,615
2016-10-08T15:57:33.364Z,610
2016-10-08T15:58:45.959Z,610
2016-10-08T15:59:59.457Z,610
2016-10-08T16:01:12.404Z,610
2016-10-08T16:02:25.337Z,605
2016-10-08T16:03:38.307Z,605
2016-10-08T16:04:51.770Z,605
2016-10-08T16:06:04.999Z,600
2016-10-08T16:07:17.829Z,605
2016-10-08T16:08:31.338Z,600
2016-10-08T16:09:45.077Z,595
2016-10-08T16:10:58.553Z,605
2016-10-08T16:12:10.964Z,605
2016-10-08T16:13:23.426Z,600
2016-10-08T16:14:35.899Z,605
2016-10-08T16:15:48.896Z,610
2016-10-08T16:17:01.888Z,610
2016-10-08T16:18:15.403Z,615
2016-10-08T16:19:27.333Z,625
2016-10-08T16:20:39.904Z,625
2016-10-08T16:21:52.884Z,625
2016-10-08T16:23:05.910Z,630
2016-10-08T16:24:18.916Z,630
2016-10-08T16:25:32.475Z,625
2016-10-08T16:26:45.404Z,610
2016-10-08T16:27:58.399Z,605
2016-10-08T16:29:11.947Z,605
2016-10-08T16:30:24.904Z,605
2016-10-08T16:31:38.449Z,605
2016-10-08T16:32:51.136Z,600
2016-10-08T16:34:04.299Z,605
2016-10-08T16:35:17.268Z,565
2016-10-08T16:36:29.734Z,620
2016-10-08T16:37:42.712Z,630
2016-10-08T16:38:56.221Z,570
2016-10-08T16:40:08.714Z,610
2016-10-08T16:41:21.755Z,610
2016-10-08T16:42:34.399Z,610
2016-10-08T16:43:46.337Z,615
2016-10-08T16:44:58.849Z,615
2016-10-08T16:46:11.278Z,625
2016-10-08T16:47:24.378Z,600
2016-10-08T16:48:37.343Z,290
2016-10-08T16:49:49.778Z,610
2016-10-08T16:51:01.718Z,600
2016-10-08T16:52:14.704Z,605
2016-10-08T16:53:27.243Z,600
2016-10-08T16:54:39.723Z,600
2016-10-08T16:55:52.216Z,595
2016-10-08T16:57:05.210Z,595
2016-10-08T16:58:17.663Z,600
2016-10-08T16:59:30.150Z,590
2016-10-08T17:00:43.676Z,595
2016-10-08T17:01:56.739Z,605
2016-10-08T17:03:10.253Z,615
2016-10-08T17:04:23.870Z,605
2016-10-08T17:05:35.781Z,605
2016-10-08T17:06:49.286Z,600
2016-10-08T17:08:01.760Z,605
2016-10-08T17:09:14.771Z,605
2016-10-08T17:10:27.773Z,605
2016-10-08T17:11:40.761Z,605
2016-10-08T17:12:53.731Z,595
2016-10-08T17:14:06.265Z,605
2016-10-08T17:15:19.909Z,605
2016-10-08T17:16:33.351Z,630
2016-10-08T17:17:46.818Z,615
2016-10-08T17:19:00.309Z,570
2016-10-08T17:20:13.489Z,550
2016-10-08T17:21:24.910Z,550
2016-10-08T17:22:37.946Z,550
2016-10-08T17:23:50.991Z,550
2016-10-08T17:25:04.450Z,540
2016-10-08T17:26:17.788Z,535
2016-10-08T17:27:30.299Z,535
2016-10-08T17:28:42.268Z,535